sensor_id;sensor_type;location;lat;lon;timestamp;P1;durP1;ratioP1;P2;durP2;ratioP2
12042;SDS011;6082;49.306;12.862;2023-11-21T00:01:52;2.10;;;1.00;;
12042;SDS011;6082;49.306;12.862;2023-11-21T00:04:18;0.50;;;0.50;;
12042;SDS011;6082;49.306;12.862;2023-11-21T00:06:43;1.20;;;0.97;;
12042;SDS011;6082;49.306;12.862;2023-11-21T00:09:12;0.90;;;0.70;;
12042;SDS011;6082;49.306;12.862;2023-11-21T00:11:38;2.90;;;0.87;;
12042;SDS011;6082;49.306;12.862;2023-11-21T00:14:04;1.27;;;1.00;;
12042;SDS011;6082;49.306;12.862;2023-11-21T00:16:30;0.87;;;0.60;;
12042;SDS011;6082;49.306;12.862;2023-11-21T00:18:55;0.90;;;0.80;;
12042;SDS011;6082;49.306;12.862;2023-11-21T00:21:21;1.70;;;0.73;;
12042;SDS011;6082;49.306;12.862;2023-11-21T00:23:47;0.90;;;0.80;;
12042;SDS011;6082;49.306;12.862;2023-11-21T00:26:13;1.47;;;0.80;;
12042;SDS011;6082;49.306;12.862;2023-11-21T00:28:39;0.80;;;0.73;;
12042;SDS011;6082;49.306;12.862;2023-11-21T00:31:05;1.47;;;0.87;;
12042;SDS011;6082;49.306;12.862;2023-11-21T00:33:31;2.37;;;0.70;;
12042;SDS011;6082;49.306;12.862;2023-11-21T00:35:57;0.63;;;0.63;;
12042;SDS011;6082;49.306;12.862;2023-11-21T00:38:22;1.60;;;0.70;;
12042;SDS011;6082;49.306;12.862;2023-11-21T00:40:49;0.60;;;0.60;;
12042;SDS011;6082;49.306;12.862;2023-11-21T00:43:15;1.20;;;0.77;;
12042;SDS011;6082;49.306;12.862;2023-11-21T00:45:40;1.70;;;0.57;;
12042;SDS011;6082;49.306;12.862;2023-11-21T00:48:06;1.70;;;0.90;;
12042;SDS011;6082;49.306;12.862;2023-11-21T00:50:33;1.87;;;1.03;;
12042;SDS011;6082;49.306;12.862;2023-11-21T00:52:59;0.50;;;0.50;;
12042;SDS011;6082;49.306;12.862;2023-11-21T00:55:24;1.10;;;0.70;;
12042;SDS011;6082;49.306;12.862;2023-11-21T00:57:51;1.20;;;1.00;;
12042;SDS011;6082;49.306;12.862;2023-11-21T01:00:17;1.30;;;1.00;;
12042;SDS011;6082;49.306;12.862;2023-11-21T01:02:43;2.13;;;0.90;;
12042;SDS011;6082;49.306;12.862;2023-11-21T01:05:10;4.47;;;0.90;;
12042;SDS011;6082;49.306;12.862;2023-11-21T01:07:36;0.97;;;0.63;;
12042;SDS011;6082;49.306;12.862;2023-11-21T01:10:02;0.93;;;0.73;;
12042;SDS011;6082;49.306;12.862;2023-11-21T01:12:31;1.20;;;0.83;;
12042;SDS011;6082;49.306;12.862;2023-11-21T01:14:56;1.50;;;0.80;;
12042;SDS011;6082;49.306;12.862;2023-11-21T01:17:25;0.90;;;0.60;;
12042;SDS011;6082;49.306;12.862;2023-11-21T01:19:51;1.43;;;0.70;;
12042;SDS011;6082;49.306;12.862;2023-11-21T01:22:16;0.73;;;0.47;;
12042;SDS011;6082;49.306;12.862;2023-11-21T01:24:47;1.00;;;0.70;;
12042;SDS011;6082;49.306;12.862;2023-11-21T01:27:13;0.77;;;0.77;;
12042;SDS011;6082;49.306;12.862;2023-11-21T01:29:38;3.00;;;0.77;;
12042;SDS011;6082;49.306;12.862;2023-11-21T01:32:04;0.70;;;0.60;;
12042;SDS011;6082;49.306;12.862;2023-11-21T01:34:32;1.93;;;0.60;;
12042;SDS011;6082;49.306;12.862;2023-11-21T01:36:58;2.53;;;0.60;;
12042;SDS011;6082;49.306;12.862;2023-11-21T01:39:24;2.30;;;0.70;;
12042;SDS011;6082;49.306;12.862;2023-11-21T01:41:51;0.50;;;0.50;;
12042;SDS011;6082;49.306;12.862;2023-11-21T01:44:17;0.57;;;0.50;;
12042;SDS011;6082;49.306;12.862;2023-11-21T01:46:44;0.60;;;0.50;;
12042;SDS011;6082;49.306;12.862;2023-11-21T01:49:11;0.73;;;0.60;;
12042;SDS011;6082;49.306;12.862;2023-11-21T01:51:38;1.57;;;0.50;;
12042;SDS011;6082;49.306;12.862;2023-11-21T01:54:06;0.77;;;0.47;;
12042;SDS011;6082;49.306;12.862;2023-11-21T01:56:32;1.00;;;0.60;;
12042;SDS011;6082;49.306;12.862;2023-11-21T01:58:58;0.70;;;0.70;;
12042;SDS011;6082;49.306;12.862;2023-11-21T02:01:24;0.43;;;0.40;;
12042;SDS011;6082;49.306;12.862;2023-11-21T02:03:51;2.10;;;0.80;;
12042;SDS011;6082;49.306;12.862;2023-11-21T02:06:17;0.90;;;0.60;;
12042;SDS011;6082;49.306;12.862;2023-11-21T02:08:43;1.30;;;0.60;;
12042;SDS011;6082;49.306;12.862;2023-11-21T02:11:09;1.50;;;0.80;;
12042;SDS011;6082;49.306;12.862;2023-11-21T02:13:38;0.40;;;0.40;;
12042;SDS011;6082;49.306;12.862;2023-11-21T02:16:08;2.07;;;0.67;;
12042;SDS011;6082;49.306;12.862;2023-11-21T02:18:35;0.83;;;0.63;;
12042;SDS011;6082;49.306;12.862;2023-11-21T02:21:03;0.70;;;0.50;;
12042;SDS011;6082;49.306;12.862;2023-11-21T02:23:29;0.57;;;0.47;;
12042;SDS011;6082;49.306;12.862;2023-11-21T02:25:55;1.50;;;0.80;;
12042;SDS011;6082;49.306;12.862;2023-11-21T02:28:21;1.33;;;0.83;;
12042;SDS011;6082;49.306;12.862;2023-11-21T02:30:53;2.20;;;1.03;;
12042;SDS011;6082;49.306;12.862;2023-11-21T02:33:24;1.20;;;1.03;;
12042;SDS011;6082;49.306;12.862;2023-11-21T02:35:49;0.83;;;0.80;;
12042;SDS011;6082;49.306;12.862;2023-11-21T02:38:19;1.40;;;0.83;;
12042;SDS011;6082;49.306;12.862;2023-11-21T02:40:48;1.07;;;1.00;;
12042;SDS011;6082;49.306;12.862;2023-11-21T02:43:14;3.07;;;1.20;;
12042;SDS011;6082;49.306;12.862;2023-11-21T02:45:39;1.00;;;0.90;;
12042;SDS011;6082;49.306;12.862;2023-11-21T02:48:06;1.20;;;1.10;;
12042;SDS011;6082;49.306;12.862;2023-11-21T02:50:32;1.43;;;0.93;;
12042;SDS011;6082;49.306;12.862;2023-11-21T02:53:00;2.10;;;1.30;;
12042;SDS011;6082;49.306;12.862;2023-11-21T02:55:27;1.10;;;1.00;;
12042;SDS011;6082;49.306;12.862;2023-11-21T02:57:53;1.93;;;1.43;;
12042;SDS011;6082;49.306;12.862;2023-11-21T03:00:21;1.40;;;1.30;;
12042;SDS011;6082;49.306;12.862;2023-11-21T03:02:49;1.60;;;1.10;;
12042;SDS011;6082;49.306;12.862;2023-11-21T03:05:15;3.00;;;1.30;;
12042;SDS011;6082;49.306;12.862;2023-11-21T03:07:40;2.77;;;1.13;;
12042;SDS011;6082;49.306;12.862;2023-11-21T03:10:07;1.10;;;1.00;;
12042;SDS011;6082;49.306;12.862;2023-11-21T03:12:36;0.93;;;0.87;;
12042;SDS011;6082;49.306;12.862;2023-11-21T03:15:03;1.20;;;1.10;;
12042;SDS011;6082;49.306;12.862;2023-11-21T03:17:31;1.40;;;1.10;;
12042;SDS011;6082;49.306;12.862;2023-11-21T03:19:58;1.43;;;1.10;;
12042;SDS011;6082;49.306;12.862;2023-11-21T03:22:25;1.80;;;1.30;;
12042;SDS011;6082;49.306;12.862;2023-11-21T03:24:51;1.47;;;1.20;;
12042;SDS011;6082;49.306;12.862;2023-11-21T03:27:17;1.70;;;1.30;;
12042;SDS011;6082;49.306;12.862;2023-11-21T03:29:44;1.93;;;1.47;;
12042;SDS011;6082;49.306;12.862;2023-11-21T03:32:11;2.00;;;1.70;;
12042;SDS011;6082;49.306;12.862;2023-11-21T03:34:42;1.50;;;1.30;;
12042;SDS011;6082;49.306;12.862;2023-11-21T03:37:20;1.93;;;1.10;;
12042;SDS011;6082;49.306;12.862;2023-11-21T03:39:46;1.70;;;1.47;;
12042;SDS011;6082;49.306;12.862;2023-11-21T03:42:12;3.07;;;1.47;;
12042;SDS011;6082;49.306;12.862;2023-11-21T03:44:37;2.23;;;1.20;;
12042;SDS011;6082;49.306;12.862;2023-11-21T03:47:03;1.40;;;1.30;;
12042;SDS011;6082;49.306;12.862;2023-11-21T03:49:29;3.27;;;1.40;;
12042;SDS011;6082;49.306;12.862;2023-11-21T03:51:56;1.90;;;1.57;;
12042;SDS011;6082;49.306;12.862;2023-11-21T03:54:21;5.20;;;1.87;;
12042;SDS011;6082;49.306;12.862;2023-11-21T03:56:47;1.77;;;1.30;;
12042;SDS011;6082;49.306;12.862;2023-11-21T03:59:13;3.40;;;1.80;;
12042;SDS011;6082;49.306;12.862;2023-11-21T04:01:38;2.47;;;1.70;;
12042;SDS011;6082;49.306;12.862;2023-11-21T04:04:04;2.53;;;1.43;;
12042;SDS011;6082;49.306;12.862;2023-11-21T04:06:30;2.20;;;1.70;;
12042;SDS011;6082;49.306;12.862;2023-11-21T04:08:57;2.40;;;1.70;;
12042;SDS011;6082;49.306;12.862;2023-11-21T04:11:23;2.03;;;1.53;;
12042;SDS011;6082;49.306;12.862;2023-11-21T04:13:49;1.60;;;1.40;;
12042;SDS011;6082;49.306;12.862;2023-11-21T04:16:15;2.70;;;2.00;;
12042;SDS011;6082;49.306;12.862;2023-11-21T04:18:41;1.63;;;1.33;;
12042;SDS011;6082;49.306;12.862;2023-11-21T04:21:07;3.03;;;1.80;;
12042;SDS011;6082;49.306;12.862;2023-11-21T04:23:33;2.30;;;1.60;;
12042;SDS011;6082;49.306;12.862;2023-11-21T04:26:00;4.40;;;1.80;;
12042;SDS011;6082;49.306;12.862;2023-11-21T04:28:27;1.67;;;1.13;;
12042;SDS011;6082;49.306;12.862;2023-11-21T04:30:53;2.97;;;1.67;;
12042;SDS011;6082;49.306;12.862;2023-11-21T04:33:19;1.73;;;1.30;;
12042;SDS011;6082;49.306;12.862;2023-11-21T04:35:44;1.50;;;1.20;;
12042;SDS011;6082;49.306;12.862;2023-11-21T04:38:11;1.17;;;1.00;;
12042;SDS011;6082;49.306;12.862;2023-11-21T04:40:37;2.30;;;1.30;;
12042;SDS011;6082;49.306;12.862;2023-11-21T04:43:02;1.63;;;1.37;;
12042;SDS011;6082;49.306;12.862;2023-11-21T04:45:29;1.83;;;1.20;;
12042;SDS011;6082;49.306;12.862;2023-11-21T04:47:55;2.40;;;1.13;;
12042;SDS011;6082;49.306;12.862;2023-11-21T04:50:21;1.50;;;1.30;;
12042;SDS011;6082;49.306;12.862;2023-11-21T04:52:47;1.90;;;1.30;;
12042;SDS011;6082;49.306;12.862;2023-11-21T04:55:12;2.30;;;1.40;;
12042;SDS011;6082;49.306;12.862;2023-11-21T04:57:40;2.40;;;1.30;;
12042;SDS011;6082;49.306;12.862;2023-11-21T05:00:07;2.43;;;1.43;;
12042;SDS011;6082;49.306;12.862;2023-11-21T05:02:34;1.50;;;1.40;;
12042;SDS011;6082;49.306;12.862;2023-11-21T05:05:00;2.67;;;1.27;;
12042;SDS011;6082;49.306;12.862;2023-11-21T05:07:26;2.53;;;1.20;;
12042;SDS011;6082;49.306;12.862;2023-11-21T05:09:54;1.40;;;1.10;;
12042;SDS011;6082;49.306;12.862;2023-11-21T05:12:21;1.60;;;1.20;;
12042;SDS011;6082;49.306;12.862;2023-11-21T05:14:50;1.63;;;1.10;;
12042;SDS011;6082;49.306;12.862;2023-11-21T05:17:16;1.87;;;1.27;;
12042;SDS011;6082;49.306;12.862;2023-11-21T05:19:42;3.40;;;1.50;;
12042;SDS011;6082;49.306;12.862;2023-11-21T05:22:10;1.60;;;1.20;;
12042;SDS011;6082;49.306;12.862;2023-11-21T05:24:37;1.27;;;0.83;;
12042;SDS011;6082;49.306;12.862;2023-11-21T05:27:04;2.83;;;1.63;;
12042;SDS011;6082;49.306;12.862;2023-11-21T05:29:30;3.03;;;1.27;;
12042;SDS011;6082;49.306;12.862;2023-11-21T05:31:56;2.10;;;1.37;;
12042;SDS011;6082;49.306;12.862;2023-11-21T05:34:21;2.07;;;1.47;;
12042;SDS011;6082;49.306;12.862;2023-11-21T05:36:49;1.60;;;1.40;;
12042;SDS011;6082;49.306;12.862;2023-11-21T05:39:15;2.43;;;1.50;;
12042;SDS011;6082;49.306;12.862;2023-11-21T05:41:42;3.93;;;1.73;;
12042;SDS011;6082;49.306;12.862;2023-11-21T05:44:08;1.97;;;1.67;;
12042;SDS011;6082;49.306;12.862;2023-11-21T05:46:34;1.77;;;1.57;;
12042;SDS011;6082;49.306;12.862;2023-11-21T05:49:00;2.27;;;1.70;;
12042;SDS011;6082;49.306;12.862;2023-11-21T05:51:25;2.30;;;1.50;;
12042;SDS011;6082;49.306;12.862;2023-11-21T05:53:51;1.67;;;1.33;;
12042;SDS011;6082;49.306;12.862;2023-11-21T05:56:17;2.97;;;1.70;;
12042;SDS011;6082;49.306;12.862;2023-11-21T05:58:43;2.40;;;1.97;;
12042;SDS011;6082;49.306;12.862;2023-11-21T06:01:09;3.03;;;2.13;;
12042;SDS011;6082;49.306;12.862;2023-11-21T06:03:37;5.90;;;2.70;;
12042;SDS011;6082;49.306;12.862;2023-11-21T06:06:03;3.03;;;2.30;;
12042;SDS011;6082;49.306;12.862;2023-11-21T06:08:30;3.17;;;2.30;;
12042;SDS011;6082;49.306;12.862;2023-11-21T06:10:56;2.43;;;2.17;;
12042;SDS011;6082;49.306;12.862;2023-11-21T06:13:21;1.90;;;1.80;;
12042;SDS011;6082;49.306;12.862;2023-11-21T06:15:49;5.83;;;2.10;;
12042;SDS011;6082;49.306;12.862;2023-11-21T06:18:16;3.00;;;2.17;;
12042;SDS011;6082;49.306;12.862;2023-11-21T06:20:44;4.53;;;2.37;;
12042;SDS011;6082;49.306;12.862;2023-11-21T06:23:11;4.13;;;2.30;;
12042;SDS011;6082;49.306;12.862;2023-11-21T06:25:36;3.83;;;2.40;;
12042;SDS011;6082;49.306;12.862;2023-11-21T06:28:03;3.47;;;2.30;;
12042;SDS011;6082;49.306;12.862;2023-11-21T06:30:28;3.03;;;1.83;;
12042;SDS011;6082;49.306;12.862;2023-11-21T06:32:54;3.23;;;1.80;;
12042;SDS011;6082;49.306;12.862;2023-11-21T06:35:21;2.10;;;1.83;;
12042;SDS011;6082;49.306;12.862;2023-11-21T06:37:47;3.30;;;2.03;;
12042;SDS011;6082;49.306;12.862;2023-11-21T06:40:13;4.33;;;1.70;;
12042;SDS011;6082;49.306;12.862;2023-11-21T06:42:43;1.80;;;1.30;;
12042;SDS011;6082;49.306;12.862;2023-11-21T06:45:09;2.20;;;1.50;;
12042;SDS011;6082;49.306;12.862;2023-11-21T06:47:36;2.70;;;1.43;;
12042;SDS011;6082;49.306;12.862;2023-11-21T06:50:03;1.43;;;1.27;;
12042;SDS011;6082;49.306;12.862;2023-11-21T06:52:29;3.00;;;1.33;;
12042;SDS011;6082;49.306;12.862;2023-11-21T06:54:55;1.23;;;1.07;;
12042;SDS011;6082;49.306;12.862;2023-11-21T06:57:22;1.43;;;1.13;;
12042;SDS011;6082;49.306;12.862;2023-11-21T06:59:48;1.87;;;1.30;;
12042;SDS011;6082;49.306;12.862;2023-11-21T07:02:15;3.00;;;1.50;;
12042;SDS011;6082;49.306;12.862;2023-11-21T07:04:43;3.53;;;1.47;;
12042;SDS011;6082;49.306;12.862;2023-11-21T07:07:11;2.90;;;1.40;;
12042;SDS011;6082;49.306;12.862;2023-11-21T07:09:36;4.23;;;2.27;;
12042;SDS011;6082;49.306;12.862;2023-11-21T07:12:02;2.77;;;1.90;;
12042;SDS011;6082;49.306;12.862;2023-11-21T07:14:31;4.97;;;2.97;;
12042;SDS011;6082;49.306;12.862;2023-11-21T07:16:57;4.47;;;2.93;;
12042;SDS011;6082;49.306;12.862;2023-11-21T07:19:23;4.23;;;2.40;;
12042;SDS011;6082;49.306;12.862;2023-11-21T07:21:49;3.00;;;2.10;;
12042;SDS011;6082;49.306;12.862;2023-11-21T07:24:18;2.73;;;1.80;;
12042;SDS011;6082;49.306;12.862;2023-11-21T07:26:43;2.53;;;1.80;;
12042;SDS011;6082;49.306;12.862;2023-11-21T07:29:09;2.30;;;1.70;;
12042;SDS011;6082;49.306;12.862;2023-11-21T07:31:36;2.93;;;1.70;;
12042;SDS011;6082;49.306;12.862;2023-11-21T07:34:03;4.47;;;1.90;;
12042;SDS011;6082;49.306;12.862;2023-11-21T07:36:29;2.37;;;2.10;;
12042;SDS011;6082;49.306;12.862;2023-11-21T07:38:54;2.10;;;1.37;;
12042;SDS011;6082;49.306;12.862;2023-11-21T07:41:20;2.10;;;1.60;;
12042;SDS011;6082;49.306;12.862;2023-11-21T07:43:47;2.40;;;1.30;;
12042;SDS011;6082;49.306;12.862;2023-11-21T07:46:13;1.57;;;1.47;;
12042;SDS011;6082;49.306;12.862;2023-11-21T07:48:39;2.30;;;1.50;;
12042;SDS011;6082;49.306;12.862;2023-11-21T07:51:07;1.93;;;1.70;;
12042;SDS011;6082;49.306;12.862;2023-11-21T07:53:33;2.07;;;1.53;;
12042;SDS011;6082;49.306;12.862;2023-11-21T07:56:05;2.33;;;1.80;;
12042;SDS011;6082;49.306;12.862;2023-11-21T07:58:35;1.97;;;1.50;;
12042;SDS011;6082;49.306;12.862;2023-11-21T08:01:02;1.53;;;1.33;;
12042;SDS011;6082;49.306;12.862;2023-11-21T08:03:29;2.50;;;1.50;;
12042;SDS011;6082;49.306;12.862;2023-11-21T08:05:55;2.37;;;1.53;;
12042;SDS011;6082;49.306;12.862;2023-11-21T08:08:24;2.90;;;2.13;;
12042;SDS011;6082;49.306;12.862;2023-11-21T08:10:51;3.27;;;1.73;;
12042;SDS011;6082;49.306;12.862;2023-11-21T08:13:23;4.10;;;1.93;;
12042;SDS011;6082;49.306;12.862;2023-11-21T08:15:50;2.10;;;1.83;;
12042;SDS011;6082;49.306;12.862;2023-11-21T08:18:18;2.57;;;1.77;;
12042;SDS011;6082;49.306;12.862;2023-11-21T08:20:44;1.97;;;1.20;;
12042;SDS011;6082;49.306;12.862;2023-11-21T08:23:13;2.00;;;1.27;;
12042;SDS011;6082;49.306;12.862;2023-11-21T08:25:44;2.67;;;1.53;;
12042;SDS011;6082;49.306;12.862;2023-11-21T08:28:10;4.17;;;1.57;;
12042;SDS011;6082;49.306;12.862;2023-11-21T08:30:36;3.70;;;1.70;;
12042;SDS011;6082;49.306;12.862;2023-11-21T08:33:02;2.40;;;1.30;;
12042;SDS011;6082;49.306;12.862;2023-11-21T08:35:29;4.93;;;1.90;;
12042;SDS011;6082;49.306;12.862;2023-11-21T08:37:55;3.53;;;1.73;;
12042;SDS011;6082;49.306;12.862;2023-11-21T08:40:21;1.67;;;1.57;;
12042;SDS011;6082;49.306;12.862;2023-11-21T08:42:47;2.13;;;1.80;;
12042;SDS011;6082;49.306;12.862;2023-11-21T08:45:14;2.53;;;2.03;;
12042;SDS011;6082;49.306;12.862;2023-11-21T08:47:40;2.57;;;1.60;;
12042;SDS011;6082;49.306;12.862;2023-11-21T08:50:06;3.03;;;1.73;;
12042;SDS011;6082;49.306;12.862;2023-11-21T08:52:33;2.50;;;1.73;;
12042;SDS011;6082;49.306;12.862;2023-11-21T08:54:59;7.00;;;2.33;;
12042;SDS011;6082;49.306;12.862;2023-11-21T08:57:32;2.00;;;1.80;;
12042;SDS011;6082;49.306;12.862;2023-11-21T09:00:02;3.97;;;2.10;;
12042;SDS011;6082;49.306;12.862;2023-11-21T09:02:31;2.67;;;2.10;;
12042;SDS011;6082;49.306;12.862;2023-11-21T09:04:58;3.40;;;2.00;;
12042;SDS011;6082;49.306;12.862;2023-11-21T09:07:28;2.30;;;1.77;;
12042;SDS011;6082;49.306;12.862;2023-11-21T09:09:54;2.90;;;1.67;;
12042;SDS011;6082;49.306;12.862;2023-11-21T09:12:20;3.07;;;1.70;;
12042;SDS011;6082;49.306;12.862;2023-11-21T09:14:46;4.23;;;1.97;;
12042;SDS011;6082;49.306;12.862;2023-11-21T09:17:12;1.83;;;1.70;;
12042;SDS011;6082;49.306;12.862;2023-11-21T09:19:39;3.03;;;1.47;;
12042;SDS011;6082;49.306;12.862;2023-11-21T09:22:06;2.67;;;1.83;;
12042;SDS011;6082;49.306;12.862;2023-11-21T09:24:32;2.67;;;1.90;;
12042;SDS011;6082;49.306;12.862;2023-11-21T09:26:58;3.67;;;1.90;;
12042;SDS011;6082;49.306;12.862;2023-11-21T09:29:25;4.70;;;2.10;;
12042;SDS011;6082;49.306;12.862;2023-11-21T09:31:51;2.87;;;2.20;;
12042;SDS011;6082;49.306;12.862;2023-11-21T09:34:17;3.00;;;2.10;;
12042;SDS011;6082;49.306;12.862;2023-11-21T09:36:47;3.50;;;2.30;;
12042;SDS011;6082;49.306;12.862;2023-11-21T09:39:13;5.10;;;2.70;;
12042;SDS011;6082;49.306;12.862;2023-11-21T09:41:43;3.10;;;2.00;;
12042;SDS011;6082;49.306;12.862;2023-11-21T09:44:18;5.30;;;2.37;;
12042;SDS011;6082;49.306;12.862;2023-11-21T09:46:48;4.57;;;2.90;;
12042;SDS011;6082;49.306;12.862;2023-11-21T09:49:14;4.93;;;2.83;;
12042;SDS011;6082;49.306;12.862;2023-11-21T09:51:44;3.63;;;2.20;;
12042;SDS011;6082;49.306;12.862;2023-11-21T09:54:11;3.60;;;2.27;;
12042;SDS011;6082;49.306;12.862;2023-11-21T09:56:37;5.00;;;2.80;;
12042;SDS011;6082;49.306;12.862;2023-11-21T09:59:03;3.53;;;2.40;;
12042;SDS011;6082;49.306;12.862;2023-11-21T10:01:32;3.33;;;2.07;;
12042;SDS011;6082;49.306;12.862;2023-11-21T10:04:00;2.97;;;2.40;;
12042;SDS011;6082;49.306;12.862;2023-11-21T10:06:25;3.90;;;2.60;;
12042;SDS011;6082;49.306;12.862;2023-11-21T10:08:52;4.00;;;2.40;;
12042;SDS011;6082;49.306;12.862;2023-11-21T10:11:19;4.43;;;2.93;;
12042;SDS011;6082;49.306;12.862;2023-11-21T10:13:52;6.97;;;3.57;;
12042;SDS011;6082;49.306;12.862;2023-11-21T10:16:19;5.03;;;2.53;;
12042;SDS011;6082;49.306;12.862;2023-11-21T10:18:48;3.83;;;2.80;;
12042;SDS011;6082;49.306;12.862;2023-11-21T10:21:18;4.47;;;2.70;;
12042;SDS011;6082;49.306;12.862;2023-11-21T10:23:44;3.10;;;2.40;;
12042;SDS011;6082;49.306;12.862;2023-11-21T10:26:11;3.73;;;2.50;;
12042;SDS011;6082;49.306;12.862;2023-11-21T10:29:02;4.20;;;2.70;;
12042;SDS011;6082;49.306;12.862;2023-11-21T10:31:31;5.23;;;2.40;;
12042;SDS011;6082;49.306;12.862;2023-11-21T10:34:14;3.53;;;2.57;;
12042;SDS011;6082;49.306;12.862;2023-11-21T10:36:41;3.57;;;2.40;;
12042;SDS011;6082;49.306;12.862;2023-11-21T10:39:07;4.77;;;2.80;;
12042;SDS011;6082;49.306;12.862;2023-11-21T10:41:33;6.03;;;3.13;;
12042;SDS011;6082;49.306;12.862;2023-11-21T10:44:00;3.87;;;2.57;;
12042;SDS011;6082;49.306;12.862;2023-11-21T10:46:29;6.17;;;4.03;;
12042;SDS011;6082;49.306;12.862;2023-11-21T10:48:55;4.70;;;3.00;;
12042;SDS011;6082;49.306;12.862;2023-11-21T10:51:21;4.90;;;2.80;;
12042;SDS011;6082;49.306;12.862;2023-11-21T10:53:49;2.33;;;2.10;;
12042;SDS011;6082;49.306;12.862;2023-11-21T10:56:16;2.97;;;2.20;;
12042;SDS011;6082;49.306;12.862;2023-11-21T10:58:48;3.63;;;2.97;;
12042;SDS011;6082;49.306;12.862;2023-11-21T11:01:15;4.33;;;2.27;;
12042;SDS011;6082;49.306;12.862;2023-11-21T11:03:44;3.47;;;2.20;;
12042;SDS011;6082;49.306;12.862;2023-11-21T11:06:10;3.20;;;2.13;;
12042;SDS011;6082;49.306;12.862;2023-11-21T11:08:37;5.17;;;3.27;;
12042;SDS011;6082;49.306;12.862;2023-11-21T11:11:04;3.73;;;2.20;;
12042;SDS011;6082;49.306;12.862;2023-11-21T11:13:31;5.13;;;2.67;;
12042;SDS011;6082;49.306;12.862;2023-11-21T11:16:00;4.97;;;2.87;;
12042;SDS011;6082;49.306;12.862;2023-11-21T11:18:30;4.13;;;2.90;;
12042;SDS011;6082;49.306;12.862;2023-11-21T11:21:42;3.10;;;1.93;;
12042;SDS011;6082;49.306;12.862;2023-11-21T11:35:12;4.10;;;3.03;;
12042;SDS011;6082;49.306;12.862;2023-11-21T11:37:35;3.50;;;2.40;;
12042;SDS011;6082;49.306;12.862;2023-11-21T11:40:01;5.00;;;2.80;;
12042;SDS011;6082;49.306;12.862;2023-11-21T11:42:32;5.67;;;2.93;;
12042;SDS011;6082;49.306;12.862;2023-11-21T11:44:57;5.83;;;2.47;;
12042;SDS011;6082;49.306;12.862;2023-11-21T11:52:46;3.87;;;2.30;;
12042;SDS011;6082;49.306;12.862;2023-11-21T11:55:14;3.47;;;2.33;;
12042;SDS011;6082;49.306;12.862;2023-11-21T11:57:44;4.37;;;2.60;;
12042;SDS011;6082;49.306;12.862;2023-11-21T12:02:53;3.33;;;2.07;;
12042;SDS011;6082;49.306;12.862;2023-11-21T12:05:22;3.47;;;2.33;;
12042;SDS011;6082;49.306;12.862;2023-11-21T12:07:49;3.90;;;2.33;;
12042;SDS011;6082;49.306;12.862;2023-11-21T12:10:18;3.80;;;2.23;;
12042;SDS011;6082;49.306;12.862;2023-11-21T12:12:50;4.53;;;3.03;;
12042;SDS011;6082;49.306;12.862;2023-11-21T12:15:18;4.43;;;2.70;;
12042;SDS011;6082;49.306;12.862;2023-11-21T12:17:46;3.13;;;2.60;;
12042;SDS011;6082;49.306;12.862;2023-11-21T12:20:13;3.23;;;2.70;;
12042;SDS011;6082;49.306;12.862;2023-11-21T12:22:52;2.40;;;1.97;;
12042;SDS011;6082;49.306;12.862;2023-11-21T12:25:20;3.23;;;2.60;;
12042;SDS011;6082;49.306;12.862;2023-11-21T12:27:48;3.63;;;2.07;;
12042;SDS011;6082;49.306;12.862;2023-11-21T12:30:17;3.57;;;2.50;;
12042;SDS011;6082;49.306;12.862;2023-11-21T12:32:50;3.30;;;2.40;;
12042;SDS011;6082;49.306;12.862;2023-11-21T12:35:17;5.93;;;3.90;;
12042;SDS011;6082;49.306;12.862;2023-11-21T12:37:47;3.67;;;2.20;;
12042;SDS011;6082;49.306;12.862;2023-11-21T12:40:13;3.53;;;2.30;;
12042;SDS011;6082;49.306;12.862;2023-11-21T12:42:44;3.13;;;2.13;;
12042;SDS011;6082;49.306;12.862;2023-11-21T12:47:52;5.87;;;3.47;;
12042;SDS011;6082;49.306;12.862;2023-11-21T12:50:28;3.43;;;2.27;;
12042;SDS011;6082;49.306;12.862;2023-11-21T12:52:59;3.93;;;2.47;;
12042;SDS011;6082;49.306;12.862;2023-11-21T12:55:29;5.00;;;3.13;;
12042;SDS011;6082;49.306;12.862;2023-11-21T12:58:02;3.33;;;2.43;;
12042;SDS011;6082;49.306;12.862;2023-11-21T13:00:36;3.93;;;2.77;;
12042;SDS011;6082;49.306;12.862;2023-11-21T13:03:07;5.17;;;2.97;;
12042;SDS011;6082;49.306;12.862;2023-11-21T13:05:35;2.53;;;2.13;;
12042;SDS011;6082;49.306;12.862;2023-11-21T13:08:07;3.37;;;2.30;;
12042;SDS011;6082;49.306;12.862;2023-11-21T13:10:35;5.47;;;3.50;;
12042;SDS011;6082;49.306;12.862;2023-11-21T13:13:02;3.87;;;3.00;;
12042;SDS011;6082;49.306;12.862;2023-11-21T13:15:30;5.80;;;3.37;;
12042;SDS011;6082;49.306;12.862;2023-11-21T13:17:58;2.13;;;1.93;;
12042;SDS011;6082;49.306;12.862;2023-11-21T13:20:24;3.90;;;2.70;;
12042;SDS011;6082;49.306;12.862;2023-11-21T13:22:51;3.50;;;2.63;;
12042;SDS011;6082;49.306;12.862;2023-11-21T13:25:29;5.33;;;2.90;;
12042;SDS011;6082;49.306;12.862;2023-11-21T13:27:56;4.87;;;3.57;;
12042;SDS011;6082;49.306;12.862;2023-11-21T13:30:23;6.47;;;3.10;;
12042;SDS011;6082;49.306;12.862;2023-11-21T13:32:53;4.27;;;3.10;;
12042;SDS011;6082;49.306;12.862;2023-11-21T13:35:22;6.07;;;3.60;;
12042;SDS011;6082;49.306;12.862;2023-11-21T13:38:09;4.27;;;2.80;;
12042;SDS011;6082;49.306;12.862;2023-11-21T13:40:37;6.33;;;3.00;;
12042;SDS011;6082;49.306;12.862;2023-11-21T13:43:12;3.33;;;2.33;;
12042;SDS011;6082;49.306;12.862;2023-11-21T13:45:42;3.93;;;2.57;;
12042;SDS011;6082;49.306;12.862;2023-11-21T13:48:09;4.43;;;3.10;;
12042;SDS011;6082;49.306;12.862;2023-11-21T13:50:42;4.60;;;2.80;;
12042;SDS011;6082;49.306;12.862;2023-11-21T13:53:24;4.13;;;2.80;;
12042;SDS011;6082;49.306;12.862;2023-11-21T13:58:20;3.60;;;2.90;;
12042;SDS011;6082;49.306;12.862;2023-11-21T14:01:05;3.60;;;2.87;;
12042;SDS011;6082;49.306;12.862;2023-11-21T14:03:33;2.53;;;2.10;;
12042;SDS011;6082;49.306;12.862;2023-11-21T14:06:09;4.57;;;2.77;;
12042;SDS011;6082;49.306;12.862;2023-11-21T14:08:40;3.90;;;2.83;;
12042;SDS011;6082;49.306;12.862;2023-11-21T14:11:07;3.90;;;2.27;;
12042;SDS011;6082;49.306;12.862;2023-11-21T14:13:33;3.80;;;2.90;;
12042;SDS011;6082;49.306;12.862;2023-11-21T14:15:58;4.03;;;3.33;;
12042;SDS011;6082;49.306;12.862;2023-11-21T14:18:25;4.07;;;3.17;;
12042;SDS011;6082;49.306;12.862;2023-11-21T14:20:55;3.27;;;2.67;;
12042;SDS011;6082;49.306;12.862;2023-11-21T14:23:21;3.50;;;2.77;;
12042;SDS011;6082;49.306;12.862;2023-11-21T14:25:48;5.73;;;3.03;;
12042;SDS011;6082;49.306;12.862;2023-11-21T14:28:17;4.07;;;2.77;;
12042;SDS011;6082;49.306;12.862;2023-11-21T14:30:44;8.17;;;3.40;;
12042;SDS011;6082;49.306;12.862;2023-11-21T14:33:13;4.43;;;3.07;;
12042;SDS011;6082;49.306;12.862;2023-11-21T14:35:38;6.13;;;3.10;;
12042;SDS011;6082;49.306;12.862;2023-11-21T14:38:04;3.97;;;2.77;;
12042;SDS011;6082;49.306;12.862;2023-11-21T14:40:31;6.93;;;3.40;;
12042;SDS011;6082;49.306;12.862;2023-11-21T14:43:01;4.17;;;3.07;;
12042;SDS011;6082;49.306;12.862;2023-11-21T14:45:30;4.77;;;3.07;;
12042;SDS011;6082;49.306;12.862;2023-11-21T14:47:59;4.70;;;3.00;;
12042;SDS011;6082;49.306;12.862;2023-11-21T14:50:35;4.30;;;2.90;;
12042;SDS011;6082;49.306;12.862;2023-11-21T14:53:07;4.30;;;3.07;;
12042;SDS011;6082;49.306;12.862;2023-11-21T14:55:34;3.93;;;3.03;;
12042;SDS011;6082;49.306;12.862;2023-11-21T14:58:16;3.10;;;2.80;;
12042;SDS011;6082;49.306;12.862;2023-11-21T15:00:52;2.70;;;2.10;;
12042;SDS011;6082;49.306;12.862;2023-11-21T15:03:23;3.43;;;2.30;;
12042;SDS011;6082;49.306;12.862;2023-11-21T15:06:01;3.50;;;2.70;;
12042;SDS011;6082;49.306;12.862;2023-11-21T15:08:51;3.93;;;3.30;;
12042;SDS011;6082;49.306;12.862;2023-11-21T15:11:25;4.03;;;3.10;;
12042;SDS011;6082;49.306;12.862;2023-11-21T15:13:56;5.90;;;3.63;;
12042;SDS011;6082;49.306;12.862;2023-11-21T15:16:23;5.23;;;2.87;;